sensor_id;sensor_type;location;lat;lon;timestamp;P1;durP1;ratioP1;P2;durP2;ratioP2
40765;SDS011;66571;52.566;13.386;2023-01-06T00:00:34;3.03;;;2.10;;
40765;SDS011;66571;52.566;13.386;2023-01-06T00:03:01;3.30;;;1.90;;
40765;SDS011;66571;52.566;13.386;2023-01-06T00:05:28;3.40;;;1.80;;
40765;SDS011;66571;52.566;13.386;2023-01-06T00:07:55;3.73;;;1.93;;
40765;SDS011;66571;52.566;13.386;2023-01-06T00:10:21;3.73;;;2.13;;
40765;SDS011;66571;52.566;13.386;2023-01-06T00:12:48;3.40;;;2.03;;
40765;SDS011;66571;52.566;13.386;2023-01-06T00:15:16;4.13;;;2.33;;
40765;SDS011;66571;52.566;13.386;2023-01-06T00:17:43;6.17;;;2.40;;
40765;SDS011;66571;52.566;13.386;2023-01-06T00:20:11;8.20;;;2.47;;
40765;SDS011;66571;52.566;13.386;2023-01-06T00:22:39;5.30;;;2.23;;
40765;SDS011;66571;52.566;13.386;2023-01-06T00:25:06;3.37;;;2.20;;
40765;SDS011;66571;52.566;13.386;2023-01-06T00:27:37;5.33;;;2.40;;
40765;SDS011;66571;52.566;13.386;2023-01-06T00:30:05;4.37;;;2.10;;
40765;SDS011;66571;52.566;13.386;2023-01-06T00:32:32;4.10;;;2.13;;
40765;SDS011;66571;52.566;13.386;2023-01-06T00:34:59;5.70;;;2.60;;
40765;SDS011;66571;52.566;13.386;2023-01-06T00:37:26;4.57;;;2.37;;
40765;SDS011;66571;52.566;13.386;2023-01-06T00:39:52;4.27;;;1.97;;
40765;SDS011;66571;52.566;13.386;2023-01-06T00:42:19;3.30;;;2.03;;
40765;SDS011;66571;52.566;13.386;2023-01-06T00:44:47;5.73;;;2.03;;
40765;SDS011;66571;52.566;13.386;2023-01-06T00:47:14;2.80;;;1.87;;
40765;SDS011;66571;52.566;13.386;2023-01-06T00:49:40;2.77;;;1.87;;
40765;SDS011;66571;52.566;13.386;2023-01-06T00:52:07;4.07;;;1.70;;
40765;SDS011;66571;52.566;13.386;2023-01-06T00:54:34;2.80;;;1.57;;
40765;SDS011;66571;52.566;13.386;2023-01-06T00:57:02;2.00;;;1.57;;
40765;SDS011;66571;52.566;13.386;2023-01-06T00:59:30;2.23;;;1.60;;
40765;SDS011;66571;52.566;13.386;2023-01-06T01:01:57;3.80;;;1.90;;
40765;SDS011;66571;52.566;13.386;2023-01-06T01:04:24;4.07;;;2.10;;
40765;SDS011;66571;52.566;13.386;2023-01-06T01:06:52;2.47;;;1.60;;
40765;SDS011;66571;52.566;13.386;2023-01-06T01:09:26;2.60;;;1.73;;
40765;SDS011;66571;52.566;13.386;2023-01-06T01:11:54;2.83;;;1.50;;
40765;SDS011;66571;52.566;13.386;2023-01-06T01:14:43;5.07;;;1.80;;
40765;SDS011;66571;52.566;13.386;2023-01-06T01:17:19;2.63;;;1.83;;
40765;SDS011;66571;52.566;13.386;2023-01-06T01:19:53;5.33;;;1.90;;
40765;SDS011;66571;52.566;13.386;2023-01-06T01:22:21;3.53;;;1.90;;
40765;SDS011;66571;52.566;13.386;2023-01-06T01:24:49;3.50;;;1.90;;
40765;SDS011;66571;52.566;13.386;2023-01-06T01:27:16;4.20;;;1.80;;
40765;SDS011;66571;52.566;13.386;2023-01-06T01:29:43;4.27;;;1.70;;
40765;SDS011;66571;52.566;13.386;2023-01-06T01:32:09;3.33;;;1.60;;
40765;SDS011;66571;52.566;13.386;2023-01-06T01:34:36;2.90;;;1.57;;
40765;SDS011;66571;52.566;13.386;2023-01-06T01:37:03;4.23;;;2.10;;
40765;SDS011;66571;52.566;13.386;2023-01-06T01:39:30;4.00;;;1.73;;
40765;SDS011;66571;52.566;13.386;2023-01-06T01:41:57;10.40;;;2.00;;
40765;SDS011;66571;52.566;13.386;2023-01-06T01:50:31;4.80;;;1.50;;
40765;SDS011;66571;52.566;13.386;2023-01-06T01:53:09;2.90;;;1.67;;
40765;SDS011;66571;52.566;13.386;2023-01-06T01:55:40;3.83;;;1.57;;
40765;SDS011;66571;52.566;13.386;2023-01-06T02:00:46;4.03;;;1.60;;
40765;SDS011;66571;52.566;13.386;2023-01-06T02:03:13;4.17;;;1.50;;
40765;SDS011;66571;52.566;13.386;2023-01-06T02:05:42;4.20;;;1.87;;
40765;SDS011;66571;52.566;13.386;2023-01-06T02:08:48;2.80;;;1.60;;
40765;SDS011;66571;52.566;13.386;2023-01-06T02:11:13;5.27;;;2.90;;
40765;SDS011;66571;52.566;13.386;2023-01-06T02:13:40;5.90;;;1.97;;
40765;SDS011;66571;52.566;13.386;2023-01-06T02:40:20;4.73;;;1.50;;
40765;SDS011;66571;52.566;13.386;2023-01-06T02:51:11;2.63;;;1.73;;
40765;SDS011;66571;52.566;13.386;2023-01-06T02:53:50;1.87;;;1.30;;
40765;SDS011;66571;52.566;13.386;2023-01-06T02:56:31;1.77;;;1.40;;
40765;SDS011;66571;52.566;13.386;2023-01-06T02:59:06;4.47;;;1.70;;
40765;SDS011;66571;52.566;13.386;2023-01-06T03:01:40;3.67;;;1.40;;
40765;SDS011;66571;52.566;13.386;2023-01-06T03:04:10;4.80;;;1.60;;
40765;SDS011;66571;52.566;13.386;2023-01-06T03:06:43;3.03;;;1.50;;
40765;SDS011;66571;52.566;13.386;2023-01-06T03:09:13;2.50;;;1.10;;
40765;SDS011;66571;52.566;13.386;2023-01-06T03:11:52;1.70;;;1.10;;
40765;SDS011;66571;52.566;13.386;2023-01-06T03:14:29;6.87;;;1.73;;
40765;SDS011;66571;52.566;13.386;2023-01-06T03:17:00;3.90;;;1.40;;
40765;SDS011;66571;52.566;13.386;2023-01-06T03:19:27;4.67;;;1.50;;
40765;SDS011;66571;52.566;13.386;2023-01-06T03:21:54;2.87;;;1.30;;
40765;SDS011;66571;52.566;13.386;2023-01-06T03:24:21;1.50;;;1.20;;
40765;SDS011;66571;52.566;13.386;2023-01-06T03:26:48;5.47;;;1.40;;
40765;SDS011;66571;52.566;13.386;2023-01-06T03:29:18;4.50;;;1.73;;
40765;SDS011;66571;52.566;13.386;2023-01-06T03:39:49;3.80;;;1.73;;
40765;SDS011;66571;52.566;13.386;2023-01-06T03:47:41;1.53;;;1.20;;
40765;SDS011;66571;52.566;13.386;2023-01-06T03:50:24;1.83;;;1.10;;
40765;SDS011;66571;52.566;13.386;2023-01-06T03:53:02;3.27;;;1.27;;
40765;SDS011;66571;52.566;13.386;2023-01-06T03:55:39;2.77;;;1.33;;
40765;SDS011;66571;52.566;13.386;2023-01-06T03:58:11;1.57;;;1.20;;
40765;SDS011;66571;52.566;13.386;2023-01-06T04:00:39;2.23;;;1.17;;
40765;SDS011;66571;52.566;13.386;2023-01-06T04:03:12;3.80;;;1.40;;
40765;SDS011;66571;52.566;13.386;2023-01-06T04:05:41;3.47;;;1.50;;
40765;SDS011;66571;52.566;13.386;2023-01-06T04:08:07;2.77;;;1.20;;
40765;SDS011;66571;52.566;13.386;2023-01-06T04:10:33;2.53;;;1.30;;
40765;SDS011;66571;52.566;13.386;2023-01-06T04:13:00;3.63;;;1.50;;
40765;SDS011;66571;52.566;13.386;2023-01-06T04:15:26;1.93;;;1.40;;
40765;SDS011;66571;52.566;13.386;2023-01-06T04:17:57;3.37;;;1.40;;
40765;SDS011;66571;52.566;13.386;2023-01-06T04:20:25;4.53;;;1.30;;
40765;SDS011;66571;52.566;13.386;2023-01-06T04:22:54;3.37;;;1.30;;
40765;SDS011;66571;52.566;13.386;2023-01-06T04:25:22;1.73;;;1.10;;
40765;SDS011;66571;52.566;13.386;2023-01-06T04:27:49;2.13;;;1.30;;
40765;SDS011;66571;52.566;13.386;2023-01-06T04:30:16;2.57;;;1.40;;
40765;SDS011;66571;52.566;13.386;2023-01-06T04:32:43;2.33;;;1.20;;
40765;SDS011;66571;52.566;13.386;2023-01-06T04:35:10;2.27;;;1.27;;
40765;SDS011;66571;52.566;13.386;2023-01-06T04:37:36;2.70;;;1.30;;
40765;SDS011;66571;52.566;13.386;2023-01-06T04:40:03;3.97;;;1.53;;
40765;SDS011;66571;52.566;13.386;2023-01-06T04:42:32;2.63;;;1.30;;
40765;SDS011;66571;52.566;13.386;2023-01-06T04:45:19;3.07;;;1.30;;
40765;SDS011;66571;52.566;13.386;2023-01-06T04:47:46;2.10;;;1.40;;
40765;SDS011;66571;52.566;13.386;2023-01-06T04:50:13;3.07;;;1.40;;
40765;SDS011;66571;52.566;13.386;2023-01-06T04:52:39;3.03;;;1.50;;
40765;SDS011;66571;52.566;13.386;2023-01-06T04:55:06;2.87;;;1.40;;
40765;SDS011;66571;52.566;13.386;2023-01-06T04:57:33;2.83;;;1.43;;
40765;SDS011;66571;52.566;13.386;2023-01-06T05:00:00;1.90;;;1.40;;
40765;SDS011;66571;52.566;13.386;2023-01-06T05:02:26;3.47;;;1.30;;
40765;SDS011;66571;52.566;13.386;2023-01-06T05:04:53;2.33;;;1.10;;
40765;SDS011;66571;52.566;13.386;2023-01-06T05:07:19;4.87;;;1.60;;
40765;SDS011;66571;52.566;13.386;2023-01-06T05:09:46;2.93;;;1.20;;
40765;SDS011;66571;52.566;13.386;2023-01-06T05:12:12;2.90;;;1.37;;
40765;SDS011;66571;52.566;13.386;2023-01-06T05:14:39;2.20;;;1.40;;
40765;SDS011;66571;52.566;13.386;2023-01-06T05:17:05;3.93;;;1.37;;
40765;SDS011;66571;52.566;13.386;2023-01-06T05:19:31;1.23;;;1.10;;
40765;SDS011;66571;52.566;13.386;2023-01-06T05:22:00;2.93;;;1.50;;
40765;SDS011;66571;52.566;13.386;2023-01-06T05:24:26;2.80;;;1.40;;
40765;SDS011;66571;52.566;13.386;2023-01-06T05:26:53;3.93;;;1.40;;
40765;SDS011;66571;52.566;13.386;2023-01-06T05:29:20;2.63;;;1.40;;
40765;SDS011;66571;52.566;13.386;2023-01-06T05:31:46;4.13;;;1.37;;
40765;SDS011;66571;52.566;13.386;2023-01-06T05:34:13;3.23;;;1.30;;
40765;SDS011;66571;52.566;13.386;2023-01-06T05:36:39;2.20;;;1.30;;
40765;SDS011;66571;52.566;13.386;2023-01-06T05:39:06;2.45;;;1.40;;
40765;SDS011;66571;52.566;13.386;2023-01-06T05:41:32;2.70;;;1.47;;
40765;SDS011;66571;52.566;13.386;2023-01-06T05:43:58;3.37;;;1.50;;
40765;SDS011;66571;52.566;13.386;2023-01-06T05:46:25;3.73;;;1.70;;
40765;SDS011;66571;52.566;13.386;2023-01-06T05:48:51;3.67;;;1.87;;
40765;SDS011;66571;52.566;13.386;2023-01-06T05:51:18;7.43;;;2.20;;
40765;SDS011;66571;52.566;13.386;2023-01-06T05:53:45;1.83;;;1.50;;
40765;SDS011;66571;52.566;13.386;2023-01-06T05:56:14;2.57;;;1.53;;
40765;SDS011;66571;52.566;13.386;2023-01-06T05:58:43;3.13;;;1.80;;
40765;SDS011;66571;52.566;13.386;2023-01-06T06:01:19;3.50;;;1.97;;
40765;SDS011;66571;52.566;13.386;2023-01-06T06:03:50;5.13;;;2.00;;
40765;SDS011;66571;52.566;13.386;2023-01-06T06:06:19;5.90;;;2.23;;
40765;SDS011;66571;52.566;13.386;2023-01-06T06:08:47;5.93;;;2.03;;
40765;SDS011;66571;52.566;13.386;2023-01-06T06:11:14;5.80;;;2.13;;
40765;SDS011;66571;52.566;13.386;2023-01-06T06:13:45;4.83;;;1.90;;
40765;SDS011;66571;52.566;13.386;2023-01-06T06:16:13;4.23;;;2.00;;
40765;SDS011;66571;52.566;13.386;2023-01-06T06:18:41;5.23;;;2.10;;
40765;SDS011;66571;52.566;13.386;2023-01-06T06:21:09;3.00;;;1.77;;
40765;SDS011;66571;52.566;13.386;2023-01-06T06:23:37;4.30;;;1.90;;
40765;SDS011;66571;52.566;13.386;2023-01-06T06:26:05;3.03;;;2.20;;
40765;SDS011;66571;52.566;13.386;2023-01-06T06:28:32;2.80;;;1.60;;
40765;SDS011;66571;52.566;13.386;2023-01-06T06:31:06;3.83;;;1.73;;
40765;SDS011;66571;52.566;13.386;2023-01-06T06:33:34;5.47;;;2.10;;
40765;SDS011;66571;52.566;13.386;2023-01-06T06:36:01;5.37;;;2.07;;
40765;SDS011;66571;52.566;13.386;2023-01-06T06:38:28;4.80;;;2.00;;
40765;SDS011;66571;52.566;13.386;2023-01-06T06:40:55;2.70;;;2.07;;
40765;SDS011;66571;52.566;13.386;2023-01-06T06:43:22;4.37;;;2.13;;
40765;SDS011;66571;52.566;13.386;2023-01-06T06:45:48;2.63;;;1.90;;
40765;SDS011;66571;52.566;13.386;2023-01-06T06:48:15;3.60;;;2.10;;
40765;SDS011;66571;52.566;13.386;2023-01-06T06:50:42;6.27;;;2.40;;
40765;SDS011;66571;52.566;13.386;2023-01-06T06:53:08;4.57;;;2.03;;
40765;SDS011;66571;52.566;13.386;2023-01-06T06:55:38;4.83;;;2.17;;
40765;SDS011;66571;52.566;13.386;2023-01-06T06:58:04;3.73;;;2.30;;
40765;SDS011;66571;52.566;13.386;2023-01-06T07:00:31;3.33;;;2.17;;
40765;SDS011;66571;52.566;13.386;2023-01-06T07:02:57;5.90;;;2.60;;
40765;SDS011;66571;52.566;13.386;2023-01-06T07:05:24;5.00;;;2.37;;
40765;SDS011;66571;52.566;13.386;2023-01-06T07:07:50;3.07;;;2.50;;
40765;SDS011;66571;52.566;13.386;2023-01-06T07:10:17;3.37;;;2.47;;
40765;SDS011;66571;52.566;13.386;2023-01-06T07:12:44;2.87;;;2.33;;
40765;SDS011;66571;52.566;13.386;2023-01-06T07:15:10;4.80;;;2.80;;
40765;SDS011;66571;52.566;13.386;2023-01-06T07:17:37;5.63;;;3.27;;
40765;SDS011;66571;52.566;13.386;2023-01-06T07:20:04;10.50;;;4.93;;
40765;SDS011;66571;52.566;13.386;2023-01-06T07:22:31;6.00;;;2.70;;
40765;SDS011;66571;52.566;13.386;2023-01-06T07:24:57;7.70;;;3.13;;
40765;SDS011;66571;52.566;13.386;2023-01-06T07:27:24;6.20;;;2.93;;
40765;SDS011;66571;52.566;13.386;2023-01-06T07:29:50;5.00;;;3.17;;
40765;SDS011;66571;52.566;13.386;2023-01-06T07:32:17;7.43;;;3.23;;
40765;SDS011;66571;52.566;13.386;2023-01-06T07:34:43;4.70;;;2.83;;
40765;SDS011;66571;52.566;13.386;2023-01-06T07:37:10;7.10;;;3.07;;
40765;SDS011;66571;52.566;13.386;2023-01-06T07:39:36;5.50;;;3.03;;
40765;SDS011;66571;52.566;13.386;2023-01-06T07:42:03;7.93;;;3.23;;
40765;SDS011;66571;52.566;13.386;2023-01-06T07:44:29;3.50;;;3.10;;
40765;SDS011;66571;52.566;13.386;2023-01-06T07:46:55;4.17;;;3.30;;
40765;SDS011;66571;52.566;13.386;2023-01-06T07:49:22;9.67;;;4.03;;
40765;SDS011;66571;52.566;13.386;2023-01-06T07:51:48;7.20;;;3.73;;
40765;SDS011;66571;52.566;13.386;2023-01-06T07:54:15;6.10;;;3.80;;
40765;SDS011;66571;52.566;13.386;2023-01-06T07:56:41;9.17;;;4.33;;
40765;SDS011;66571;52.566;13.386;2023-01-06T07:59:09;6.13;;;4.40;;
40765;SDS011;66571;52.566;13.386;2023-01-06T08:01:36;7.27;;;4.13;;
40765;SDS011;66571;52.566;13.386;2023-01-06T08:04:02;6.20;;;4.07;;
40765;SDS011;66571;52.566;13.386;2023-01-06T08:06:29;11.20;;;4.50;;
40765;SDS011;66571;52.566;13.386;2023-01-06T08:08:55;7.27;;;5.07;;
40765;SDS011;66571;52.566;13.386;2023-01-06T08:11:22;5.63;;;4.63;;
40765;SDS011;66571;52.566;13.386;2023-01-06T08:13:48;9.80;;;4.67;;
40765;SDS011;66571;52.566;13.386;2023-01-06T08:16:15;6.47;;;4.93;;
40765;SDS011;66571;52.566;13.386;2023-01-06T08:18:41;6.37;;;5.37;;
40765;SDS011;66571;52.566;13.386;2023-01-06T08:21:09;11.23;;;5.77;;
40765;SDS011;66571;52.566;13.386;2023-01-06T08:23:36;6.13;;;5.20;;
40765;SDS011;66571;52.566;13.386;2023-01-06T08:26:07;6.67;;;5.00;;
40765;SDS011;66571;52.566;13.386;2023-01-06T08:28:41;10.47;;;5.07;;
40765;SDS011;66571;52.566;13.386;2023-01-06T08:31:10;8.97;;;5.67;;
40765;SDS011;66571;52.566;13.386;2023-01-06T08:33:38;8.60;;;5.53;;
40765;SDS011;66571;52.566;13.386;2023-01-06T08:36:05;8.93;;;5.90;;
40765;SDS011;66571;52.566;13.386;2023-01-06T08:38:34;9.97;;;5.97;;
40765;SDS011;66571;52.566;13.386;2023-01-06T08:41:02;8.40;;;6.17;;
40765;SDS011;66571;52.566;13.386;2023-01-06T08:43:29;7.43;;;5.73;;
40765;SDS011;66571;52.566;13.386;2023-01-06T08:46:00;8.60;;;6.10;;
40765;SDS011;66571;52.566;13.386;2023-01-06T08:48:28;9.53;;;6.77;;
40765;SDS011;66571;52.566;13.386;2023-01-06T08:51:00;9.77;;;6.97;;
40765;SDS011;66571;52.566;13.386;2023-01-06T08:53:37;8.00;;;6.03;;
40765;SDS011;66571;52.566;13.386;2023-01-06T08:56:04;10.30;;;6.73;;
40765;SDS011;66571;52.566;13.386;2023-01-06T08:58:39;9.30;;;6.20;;
40765;SDS011;66571;52.566;13.386;2023-01-06T09:01:06;10.83;;;5.97;;
40765;SDS011;66571;52.566;13.386;2023-01-06T09:03:40;8.00;;;6.73;;
40765;SDS011;66571;52.566;13.386;2023-01-06T09:06:06;9.30;;;6.80;;
40765;SDS011;66571;52.566;13.386;2023-01-06T09:08:33;9.93;;;6.60;;
40765;SDS011;66571;52.566;13.386;2023-01-06T09:11:03;12.17;;;8.50;;
40765;SDS011;66571;52.566;13.386;2023-01-06T09:13:34;14.50;;;7.53;;
40765;SDS011;66571;52.566;13.386;2023-01-06T09:16:07;11.47;;;7.80;;
40765;SDS011;66571;52.566;13.386;2023-01-06T09:18:34;13.20;;;8.00;;
40765;SDS011;66571;52.566;13.386;2023-01-06T09:21:02;10.47;;;7.40;;
40765;SDS011;66571;52.566;13.386;2023-01-06T09:23:30;13.30;;;9.80;;
40765;SDS011;66571;52.566;13.386;2023-01-06T09:25:57;11.23;;;8.43;;
40765;SDS011;66571;52.566;13.386;2023-01-06T09:28:24;10.33;;;7.77;;
40765;SDS011;66571;52.566;13.386;2023-01-06T09:30:51;9.27;;;7.10;;
40765;SDS011;66571;52.566;13.386;2023-01-06T09:33:17;12.43;;;8.37;;
40765;SDS011;66571;52.566;13.386;2023-01-06T09:35:44;11.33;;;7.23;;
40765;SDS011;66571;52.566;13.386;2023-01-06T09:38:11;9.77;;;7.83;;
40765;SDS011;66571;52.566;13.386;2023-01-06T09:46:22;12.87;;;8.53;;
40765;SDS011;66571;52.566;13.386;2023-01-06T09:49:02;11.43;;;8.43;;
40765;SDS011;66571;52.566;13.386;2023-01-06T09:51:53;11.63;;;8.20;;
40765;SDS011;66571;52.566;13.386;2023-01-06T09:54:26;12.03;;;8.80;;
40765;SDS011;66571;52.566;13.386;2023-01-06T09:57:03;12.63;;;8.83;;
40765;SDS011;66571;52.566;13.386;2023-01-06T09:59:33;12.17;;;8.63;;
40765;SDS011;66571;52.566;13.386;2023-01-06T10:02:14;13.87;;;8.50;;
40765;SDS011;66571;52.566;13.386;2023-01-06T10:04:48;12.73;;;8.47;;
40765;SDS011;66571;52.566;13.386;2023-01-06T10:07:29;11.63;;;8.37;;
40765;SDS011;66571;52.566;13.386;2023-01-06T10:16:35;10.83;;;7.93;;
40765;SDS011;66571;52.566;13.386;2023-01-06T10:25:19;11.33;;;7.27;;
40765;SDS011;66571;52.566;13.386;2023-01-06T10:28:33;9.63;;;7.47;;
40765;SDS011;66571;52.566;13.386;2023-01-06T10:30:57;9.00;;;7.67;;
40765;SDS011;66571;52.566;13.386;2023-01-06T10:33:27;10.37;;;8.00;;
40765;SDS011;66571;52.566;13.386;2023-01-06T10:35:57;10.60;;;7.93;;
40765;SDS011;66571;52.566;13.386;2023-01-06T10:38:26;14.70;;;8.67;;
40765;SDS011;66571;52.566;13.386;2023-01-06T10:41:12;12.90;;;8.03;;
40765;SDS011;66571;52.566;13.386;2023-01-06T10:43:44;11.37;;;8.17;;
40765;SDS011;66571;52.566;13.386;2023-01-06T10:46:11;10.40;;;8.20;;
40765;SDS011;66571;52.566;13.386;2023-01-06T10:48:38;11.97;;;7.87;;
40765;SDS011;66571;52.566;13.386;2023-01-06T10:51:19;10.83;;;7.83;;
40765;SDS011;66571;52.566;13.386;2023-01-06T10:53:59;11.87;;;8.30;;
40765;SDS011;66571;52.566;13.386;2023-01-06T10:56:29;12.17;;;8.13;;
40765;SDS011;66571;52.566;13.386;2023-01-06T10:58:59;9.20;;;8.13;;
40765;SDS011;66571;52.566;13.386;2023-01-06T11:01:31;10.70;;;8.13;;
40765;SDS011;66571;52.566;13.386;2023-01-06T11:04:04;12.97;;;8.37;;
40765;SDS011;66571;52.566;13.386;2023-01-06T11:06:36;10.60;;;8.10;;
40765;SDS011;66571;52.566;13.386;2023-01-06T11:09:06;9.80;;;8.17;;
40765;SDS011;66571;52.566;13.386;2023-01-06T11:11:47;10.30;;;7.70;;
40765;SDS011;66571;52.566;13.386;2023-01-06T11:14:16;10.07;;;7.67;;
40765;SDS011;66571;52.566;13.386;2023-01-06T11:16:51;9.70;;;7.80;;
40765;SDS011;66571;52.566;13.386;2023-01-06T11:19:21;10.17;;;7.97;;
40765;SDS011;66571;52.566;13.386;2023-01-06T11:21:56;10.57;;;7.47;;
40765;SDS011;66571;52.566;13.386;2023-01-06T11:24:24;10.30;;;7.80;;
40765;SDS011;66571;52.566;13.386;2023-01-06T11:26:55;9.30;;;7.67;;
40765;SDS011;66571;52.566;13.386;2023-01-06T11:29:28;8.90;;;7.27;;
40765;SDS011;66571;52.566;13.386;2023-01-06T11:31:56;10.10;;;8.30;;
40765;SDS011;66571;52.566;13.386;2023-01-06T11:34:27;12.37;;;7.80;;
40765;SDS011;66571;52.566;13.386;2023-01-06T11:36:54;11.47;;;7.20;;
40765;SDS011;66571;52.566;13.386;2023-01-06T11:39:26;10.37;;;7.40;;
40765;SDS011;66571;52.566;13.386;2023-01-06T11:42:00;10.67;;;7.47;;
40765;SDS011;66571;52.566;13.386;2023-01-06T11:44:31;9.67;;;7.67;;
40765;SDS011;66571;52.566;13.386;2023-01-06T11:49:52;10.10;;;7.60;;
40765;SDS011;66571;52.566;13.386;2023-01-06T11:52:24;8.87;;;7.33;;
40765;SDS011;66571;52.566;13.386;2023-01-06T11:55:08;10.60;;;8.17;;
40765;SDS011;66571;52.566;13.386;2023-01-06T12:00:56;10.10;;;7.00;;
40765;SDS011;66571;52.566;13.386;2023-01-06T12:03:39;13.20;;;8.00;;
40765;SDS011;66571;52.566;13.386;2023-01-06T12:09:32;10.60;;;8.53;;
40765;SDS011;66571;52.566;13.386;2023-01-06T12:14:23;9.10;;;8.07;;
40765;SDS011;66571;52.566;13.386;2023-01-06T12:17:00;9.73;;;7.50;;
40765;SDS011;66571;52.566;13.386;2023-01-06T12:19:30;12.17;;;8.50;;
40765;SDS011;66571;52.566;13.386;2023-01-06T12:22:04;11.23;;;9.37;;
40765;SDS011;66571;52.566;13.386;2023-01-06T12:24:45;11.30;;;8.67;;
40765;SDS011;66571;52.566;13.386;2023-01-06T12:27:19;9.73;;;7.87;;
40765;SDS011;66571;52.566;13.386;2023-01-06T12:29:55;11.23;;;7.73;;
40765;SDS011;66571;52.566;13.386;2023-01-06T12:32:25;9.27;;;6.80;;
40765;SDS011;66571;52.566;13.386;2023-01-06T12:35:00;5.80;;;5.20;;
40765;SDS011;66571;52.566;13.386;2023-01-06T12:37:31;7.33;;;5.30;;
40765;SDS011;66571;52.566;13.386;2023-01-06T12:40:03;6.93;;;5.77;;
40765;SDS011;66571;52.566;13.386;2023-01-06T12:45:18;8.03;;;5.07;;
40765;SDS011;66571;52.566;13.386;2023-01-06T12:47:54;6.43;;;4.97;;
40765;SDS011;66571;52.566;13.386;2023-01-06T12:53:00;7.37;;;5.53;;
40765;SDS011;66571;52.566;13.386;2023-01-06T13:01:05;6.43;;;5.20;;
40765;SDS011;66571;52.566;13.386;2023-01-06T13:03:49;6.03;;;4.67;;
40765;SDS011;66571;52.566;13.386;2023-01-06T13:12:16;4.07;;;3.63;;
40765;SDS011;66571;52.566;13.386;2023-01-06T13:15:25;3.70;;;3.40;;
40765;SDS011;66571;52.566;13.386;2023-01-06T13:40:20;3.57;;;2.20;;
40765;SDS011;66571;52.566;13.386;2023-01-06T13:42:57;2.33;;;1.80;;
40765;SDS011;66571;52.566;13.386;2023-01-06T13:45:46;2.77;;;2.03;;
40765;SDS011;66571;52.566;13.386;2023-01-06T13:48:14;2.73;;;1.80;;
40765;SDS011;66571;52.566;13.386;2023-01-06T13:50:45;1.83;;;1.67;;
40765;SDS011;66571;52.566;13.386;2023-01-06T13:53:14;2.17;;;1.97;;
40765;SDS011;66571;52.566;13.386;2023-01-06T13:55:44;3.00;;;2.10;;
40765;SDS011;66571;52.566;13.386;2023-01-06T14:01:10;2.77;;;1.70;;
40765;SDS011;66571;52.566;13.386;2023-01-06T14:03:55;1.70;;;1.60;;
40765;SDS011;66571;52.566;13.386;2023-01-06T14:07:07;2.70;;;1.40;;
40765;SDS011;66571;52.566;13.386;2023-01-06T14:09:36;1.87;;;1.50;;
40765;SDS011;66571;52.566;13.386;2023-01-06T14:12:08;2.37;;;1.50;;
40765;SDS011;66571;52.566;13.386;2023-01-06T14:14:41;1.67;;;1.43;;
40765;SDS011;66571;52.566;13.386;2023-01-06T14:17:25;3.10;;;1.47;;
40765;SDS011;66571;52.566;13.386;2023-01-06T14:20:01;6.63;;;4.50;;
40765;SDS011;66571;52.566;13.386;2023-01-06T14:22:29;2.80;;;2.10;;
40765;SDS011;66571;52.566;13.386;2023-01-06T14:25:05;21.83;;;8.70;;
40765;SDS011;66571;52.566;13.386;2023-01-06T14:30:25;17.60;;;9.13;;
40765;SDS011;66571;52.566;13.386;2023-01-06T14:33:04;15.23;;;7.03;;
40765;SDS011;66571;52.566;13.386;2023-01-06T14:35:49;13.93;;;7.63;;
40765;SDS011;66571;52.566;13.386;2023-01-06T14:43:52;2.60;;;1.70;;
40765;SDS011;66571;52.566;13.386;2023-01-06T14:46:25;2.97;;;2.33;;
40765;SDS011;66571;52.566;13.386;2023-01-06T14:49:00;1.73;;;1.63;;
40765;SDS011;66571;52.566;13.386;2023-01-06T14:51:29;1.50;;;1.40;;
40765;SDS011;66571;52.566;13.386;2023-01-06T14:53:59;1.70;;;1.50;;
40765;SDS011;66571;52.566;13.386;2023-01-06T14:56:30;3.50;;;3.20;;
40765;SDS011;66571;52.566;13.386;2023-01-06T14:59:07;3.80;;;1.70;;
40765;SDS011;66571;52.566;13.386;2023-01-06T15:01:36;2.10;;;1.70;;
40765;SDS011;66571;52.566;13.386;2023-01-06T15:04:05;2.00;;;1.80;;
40765;SDS011;66571;52.566;13.386;2023-01-06T15:07:00;2.07;;;1.50;;
40765;SDS011;66571;52.566;13.386;2023-01-06T15:09:42;1.83;;;1.73;;
40765;SDS011;66571;52.566;13.386;2023-01-06T15:14:49;3.77;;;1.90;;
40765;SDS011;66571;52.566;13.386;2023-01-06T15:17:16;3.13;;;1.60;;
40765;SDS011;66571;52.566;13.386;2023-01-06T15:19:43;2.40;;;1.70;;
40765;SDS011;66571;52.566;13.386;2023-01-06T15:22:12;1.87;;;1.50;;
40765;SDS011;66571;52.566;13.386;2023-01-06T15:24:45;1.90;;;1.80;;
40765;SDS011;66571;52.566;13.386;2023-01-06T15:27:13;2.03;;;1.70;;
40765;SDS011;66571;52.566;13.386;2023-01-06T15:29:51;2.20;;;1.80;;
40765;SDS011;66571;52.566;13.386;2023-01-06T15:32:21;2.17;;;2.03;;
40765;SDS011;66571;52.566;13.386;2023-01-06T15:34:50;2.50;;;2.00;;
40765;SDS011;66571;52.566;13.386;2023-01-06T15:37:19;4.00;;;2.17;;
40765;SDS011;66571;52.566;13.386;2023-01-06T15:39:48;2.30;;;1.90;;
40765;SDS011;66571;52.566;13.386;2023-01-06T15:42:22;2.63;;;1.90;;
40765;SDS011;66571;52.566;13.386;2023-01-06T15:44:57;1.97;;;1.87;;
40765;SDS011;66571;52.566;13.386;2023-01-06T15:50:02;2.70;;;1.90;;
40765;SDS011;66571;52.566;13.386;2023-01-06T15:52:33;2.30;;;2.10;;
40765;SDS011;66571;52.566;13.386;2023-01-06T15:55:04;2.40;;;2.07;;
40765;SDS011;66571;52.566;13.386;2023-01-06T15:57:34;1.90;;;1.80;;
40765;SDS011;66571;52.566;13.386;2023-01-06T16:00:05;2.50;;;2.10;;
40765;SDS011;66571;52.566;13.386;2023-01-06T16:02:34;1.73;;;1.63;;
40765;SDS011;66571;52.566;13.386;2023-01-06T16:05:01;2.70;;;2.47;;
40765;SDS011;66571;52.566;13.386;2023-01-06T16:07:46;2.43;;;1.80;;
40765;SDS011;66571;52.566;13.386;2023-01-06T16:10:32;2.43;;;1.90;;
40765;SDS011;66571;52.566;13.386;2023-01-06T16:13:02;3.67;;;2.00;;
40765;SDS011;66571;52.566;13.386;2023-01-06T16:15:58;2.10;;;2.00;;
40765;SDS011;66571;52.566;13.386;2023-01-06T16:18:35;2.30;;;2.10;;
40765;SDS011;66571;52.566;13.386;2023-01-06T16:23:38;2.40;;;2.20;;
40765;SDS011;66571;52.566;13.386;2023-01-06T16:26:24;2.23;;;1.97;;
40765;SDS011;66571;52.566;13.386;2023-01-06T16:28:53;2.73;;;2.07;;
40765;SDS011;66571;52.566;13.386;2023-01-06T16:31:29;4.60;;;2.57;;
40765;SDS011;66571;52.566;13.386;2023-01-06T16:34:12;2.40;;;2.10;;
40765;SDS011;66571;52.566;13.386;2023-01-06T16:36:50;2.40;;;2.20;;
40765;SDS011;66571;52.566;13.386;2023-01-06T16:39:19;2.30;;;2.10;;
40765;SDS011;66571;52.566;13.386;2023-01-06T16:44:25;2.33;;;2.20;;
40765;SDS011;66571;52.566;13.386;2023-01-06T16:46:52;2.77;;;2.57;;
40765;SDS011;66571;52.566;13.386;2023-01-06T16:49:18;2.70;;;2.50;;
40765;SDS011;66571;52.566;13.386;2023-01-06T16:51:46;2.87;;;2.47;;
40765;SDS011;66571;52.566;13.386;2023-01-06T16:54:13;2.60;;;2.40;;
40765;SDS011;66571;52.566;13.386;2023-01-06T16:56:46;3.20;;;2.90;;
40765;SDS011;66571;52.566;13.386;2023-01-06T16:59:15;4.27;;;3.67;;
40765;SDS011;66571;52.566;13.386;2023-01-06T17:01:43;3.40;;;3.10;;
40765;SDS011;66571;52.566;13.386;2023-01-06T17:04:12;3.33;;;3.03;;
40765;SDS011;66571;52.566;13.386;2023-01-06T17:06:41;3.57;;;3.00;;
40765;SDS011;66571;52.566;13.386;2023-01-06T17:09:21;4.23;;;3.10;;
40765;SDS011;66571;52.566;13.386;2023-01-06T17:11:48;3.83;;;3.23;;
40765;SDS011;66571;52.566;13.386;2023-01-06T17:14:17;3.70;;;3.27;;
40765;SDS011;66571;52.566;13.386;2023-01-06T17:16:45;2.97;;;2.77;;
40765;SDS011;66571;52.566;13.386;2023-01-06T17:21:55;2.97;;;2.77;;